Time;durP1;ratioP1;P1;durP2;ratioP2;P2;SDS_P1;SDS_P2;PMS_P1;PMS_P2;Temp;Humidity;BMP_temperature;BMP_pressure;BME280_temperature;BME280_humidity;BME280_pressure;Samples;Min_cycle;Max_cycle;Signal;HPM_P1;HPM_P2
2023/11/01 00:02:28;;;;;;;9.57;6.95;;;;;;;;;;10290380;28;20079;-64
2023/11/01 00:07:26;;;;;;;9.88;7.20;;;;;;;;;;10288603;28;20072;-65
2023/11/01 00:12:25;;;;;;;14.98;7.80;;;;;;;;;;10289510;28;20068;-65
2023/11/01 00:17:23;;;;;;;13.75;7.45;;;;;;;;;;10289999;28;20140;-64
2023/11/01 00:22:23;;;;;;;11.88;6.60;;;;;;;;;;10289694;28;20075;-65
2023/11/01 00:27:21;;;;;;;17.00;8.13;;;;;;;;;;10289812;28;20072;-64
2023/11/01 00:32:19;;;;;;;11.95;6.22;;;;;;;;;;10289106;28;20076;-64
2023/11/01 00:37:18;;;;;;;12.88;6.13;;;;;;;;;;10294774;28;20533;-64
2023/11/01 00:42:18;;;;;;;16.48;5.95;;;;;;;;;;10290351;28;20075;-64
2023/11/01 00:47:17;;;;;;;13.75;7.20;;;;;;;;;;10289466;28;20465;-64
2023/11/01 00:52:18;;;;;;;12.68;6.65;;;;;;;;;;10295479;28;20080;-64
2023/11/01 00:57:18;;;;;;;8.95;6.72;;;;;;;;;;10290633;28;20080;-65
2023/11/01 01:02:16;;;;;;;13.02;7.45;;;;;;;;;;10287014;28;20068;-65
2023/11/01 01:07:14;;;;;;;9.70;6.55;;;;;;;;;;10289830;28;20079;-65
2023/11/01 01:12:13;;;;;;;13.43;7.35;;;;;;;;;;10287770;28;20080;-65
2023/11/01 01:17:12;;;;;;;11.57;6.32;;;;;;;;;;10289155;28;20076;-65
2023/11/01 01:22:11;;;;;;;11.80;6.65;;;;;;;;;;10296577;28;20071;-66
2023/11/01 01:27:10;;;;;;;16.38;6.75;;;;;;;;;;10295509;28;20069;-65
2023/11/01 01:32:08;;;;;;;15.65;7.28;;;;;;;;;;10296936;28;20079;-65
2023/11/01 01:37:08;;;;;;;24.30;7.47;;;;;;;;;;10292248;28;20068;-65
2023/11/01 01:42:06;;;;;;;15.63;6.65;;;;;;;;;;10293626;28;20071;-65
2023/11/01 01:47:05;;;;;;;10.93;7.55;;;;;;;;;;10295678;28;20504;-65
2023/11/01 01:52:04;;;;;;;10.20;6.10;;;;;;;;;;10300894;28;20084;-64
2023/11/01 01:57:04;;;;;;;14.60;7.07;;;;;;;;;;10295874;28;20084;-64
2023/11/01 02:02:02;;;;;;;15.18;6.85;;;;;;;;;;10295623;28;20502;-65
2023/11/01 02:07:01;;;;;;;19.83;8.30;;;;;;;;;;10298236;28;20055;-64
2023/11/01 02:11:59;;;;;;;13.52;7.60;;;;;;;;;;10295556;28;20085;-65
2023/11/01 02:16:59;;;;;;;25.88;10.55;;;;;;;;;;10301019;28;20067;-65
2023/11/01 02:21:57;;;;;;;16.13;9.82;;;;;;;;;;10293574;28;20457;-65
2023/11/01 02:26:57;;;;;;;17.98;9.52;;;;;;;;;;10291697;28;20076;-65
2023/11/01 02:31:55;;;;;;;19.45;10.13;;;;;;;;;;10286963;28;20076;-65
2023/11/01 02:36:53;;;;;;;14.82;10.30;;;;;;;;;;10292493;28;20084;-64
2023/11/01 02:41:51;;;;;;;21.85;11.07;;;;;;;;;;10291731;28;20081;-66
2023/11/01 02:46:51;;;;;;;12.50;10.10;;;;;;;;;;10294057;28;20107;-65
2023/11/01 02:51:49;;;;;;;16.20;10.77;;;;;;;;;;10290349;28;20084;-64
2023/11/01 02:56:47;;;;;;;16.73;11.60;;;;;;;;;;10290427;28;20072;-65
2023/11/01 03:01:46;;;;;;;21.35;10.52;;;;;;;;;;10292003;28;20065;-65
2023/11/01 03:06:45;;;;;;;13.75;11.32;;;;;;;;;;10292286;28;20068;-65
2023/11/01 03:11:44;;;;;;;19.88;11.00;;;;;;;;;;10294044;28;20076;-65
2023/11/01 03:16:42;;;;;;;16.33;10.18;;;;;;;;;;10292774;28;20466;-65
2023/11/01 03:21:41;;;;;;;12.75;9.50;;;;;;;;;;10286352;28;20068;-65
2023/11/01 03:26:42;;;;;;;16.35;10.18;;;;;;;;;;10291874;28;20471;-65
2023/11/01 03:31:40;;;;;;;12.60;7.72;;;;;;;;;;10288195;28;20072;-66
2023/11/01 03:36:38;;;;;;;12.38;8.73;;;;;;;;;;10291560;28;20067;-66
2023/11/01 03:41:39;;;;;;;10.32;7.90;;;;;;;;;;10290179;28;20076;-65
2023/11/01 03:46:39;;;;;;;10.85;8.25;;;;;;;;;;10291001;28;20072;-65
2023/11/01 03:51:37;;;;;;;12.20;8.13;;;;;;;;;;10290227;28;20114;-65
2023/11/01 03:56:35;;;;;;;9.95;6.93;;;;;;;;;;10289592;28;20072;-64
2023/11/01 04:01:33;;;;;;;10.25;6.55;;;;;;;;;;10291104;28;20056;-65
2023/11/01 04:06:33;;;;;;;12.27;6.82;;;;;;;;;;10290727;28;20091;-64
2023/11/01 04:11:31;;;;;;;9.20;5.60;;;;;;;;;;10289939;28;20065;-65
2023/11/01 04:16:29;;;;;;;10.00;6.60;;;;;;;;;;10290631;28;20071;-65
2023/11/01 04:21:28;;;;;;;9.13;6.88;;;;;;;;;;10289684;28;20072;-65
2023/11/01 04:26:27;;;;;;;9.13;5.75;;;;;;;;;;10288838;28;20044;-65
2023/11/01 04:31:25;;;;;;;7.45;6.43;;;;;;;;;;10289791;28;20072;-65
2023/11/01 04:36:26;;;;;;;8.45;6.05;;;;;;;;;;10288893;28;20068;-65
2023/11/01 04:41:27;;;;;;;11.45;7.10;;;;;;;;;;10290545;28;20076;-65
2023/11/01 04:46:27;;;;;;;8.57;5.97;;;;;;;;;;10288825;28;20068;-65
2023/11/01 04:51:26;;;;;;;14.50;6.43;;;;;;;;;;10291210;28;20057;-64
2023/11/01 04:56:25;;;;;;;6.45;5.82;;;;;;;;;;10296768;28;20075;-64
2023/11/01 05:01:24;;;;;;;7.50;5.97;;;;;;;;;;10297513;28;20088;-64
2023/11/01 05:06:23;;;;;;;7.78;6.43;;;;;;;;;;10295047;28;20505;-65
2023/11/01 05:11:22;;;;;;;9.13;6.65;;;;;;;;;;10294287;28;20072;-65
2023/11/01 05:16:20;;;;;;;8.95;6.20;;;;;;;;;;10296476;28;20501;-64
2023/11/01 05:21:19;;;;;;;7.07;5.32;;;;;;;;;;10295738;28;20087;-65
2023/11/01 05:26:18;;;;;;;6.32;5.20;;;;;;;;;;10297106;28;20068;-65
2023/11/01 05:31:16;;;;;;;8.20;5.13;;;;;;;;;;10295015;28;20119;-65
2023/11/01 05:36:15;;;;;;;6.40;4.45;;;;;;;;;;10296097;28;20085;-65
2023/11/01 05:41:13;;;;;;;8.57;4.82;;;;;;;;;;10296776;28;20085;-64
2023/11/01 05:46:13;;;;;;;8.38;4.50;;;;;;;;;;10295918;28;20364;-65
2023/11/01 05:51:12;;;;;;;7.93;4.20;;;;;;;;;;10292747;28;20090;-65
2023/11/01 05:56:10;;;;;;;6.35;4.80;;;;;;;;;;10296366;28;20075;-65
2023/11/01 06:01:08;;;;;;;9.43;5.15;;;;;;;;;;10293305;28;20060;-65
2023/11/01 06:06:08;;;;;;;6.55;4.43;;;;;;;;;;10291260;28;20073;-65
2023/11/01 06:11:07;;;;;;;6.15;3.83;;;;;;;;;;10294043;28;20076;-66
2023/11/01 06:16:07;;;;;;;6.05;4.50;;;;;;;;;;10290139;28;20079;-66
2023/11/01 06:21:06;;;;;;;5.28;3.88;;;;;;;;;;10291236;28;20087;-65
2023/11/01 06:26:05;;;;;;;7.55;3.80;;;;;;;;;;10293579;28;20083;-65
2023/11/01 06:31:04;;;;;;;4.93;3.70;;;;;;;;;;10290687;28;20087;-65
2023/11/01 06:36:02;;;;;;;5.07;3.47;;;;;;;;;;10286383;28;20088;-64
2023/11/01 06:41:02;;;;;;;5.40;3.90;;;;;;;;;;10288891;28;20081;-64
2023/11/01 06:46:02;;;;;;;5.38;3.85;;;;;;;;;;10286886;28;20086;-65
2023/11/01 06:51:00;;;;;;;6.32;4.60;;;;;;;;;;10288825;28;20083;-65
2023/11/01 06:55:58;;;;;;;11.63;10.52;;;;;;;;;;10286452;28;20076;-64
2023/11/01 07:00:57;;;;;;;5.95;3.88;;;;;;;;;;10285782;28;20077;-65
2023/11/01 07:05:56;;;;;;;5.50;3.50;;;;;;;;;;10283502;28;20520;-66
2023/11/01 07:10:55;;;;;;;7.15;3.15;;;;;;;;;;10287899;28;20513;-65
2023/11/01 07:15:54;;;;;;;4.38;3.05;;;;;;;;;;10290090;28;20087;-64
2023/11/01 07:20:52;;;;;;;4.50;3.67;;;;;;;;;;10281584;28;20528;-65
2023/11/01 07:25:52;;;;;;;3.75;3.03;;;;;;;;;;10284803;28;20080;-65
2023/11/01 07:30:50;;;;;;;4.85;3.60;;;;;;;;;;10286810;28;20072;-66
2023/11/01 07:35:48;;;;;;;6.40;3.38;;;;;;;;;;10286131;28;20068;-66
2023/11/01 07:40:47;;;;;;;7.18;3.85;;;;;;;;;;10281187;28;20080;-65
2023/11/01 07:45:47;;;;;;;4.90;3.13;;;;;;;;;;10290396;28;20076;-64
2023/11/01 07:50:45;;;;;;;6.13;3.65;;;;;;;;;;10291035;28;20520;-64
2023/11/01 07:55:43;;;;;;;11.85;4.32;;;;;;;;;;10291246;28;20076;-65
2023/11/01 08:00:41;;;;;;;7.13;3.30;;;;;;;;;;10286164;28;20073;-64
2023/11/01 08:05:41;;;;;;;7.65;3.58;;;;;;;;;;10290255;28;20106;-64
2023/11/01 08:10:39;;;;;;;4.22;3.20;;;;;;;;;;10288622;28;20068;-64
2023/11/01 08:15:38;;;;;;;3.83;2.90;;;;;;;;;;10287999;28;20095;-65
2023/11/01 08:20:36;;;;;;;4.72;2.40;;;;;;;;;;10290073;28;20072;-65
2023/11/01 08:25:36;;;;;;;4.07;2.78;;;;;;;;;;10286907;28;20056;-64
2023/11/01 08:30:35;;;;;;;3.90;2.63;;;;;;;;;;10284744;28;20065;-64
2023/11/01 08:35:33;;;;;;;4.82;2.33;;;;;;;;;;10286313;28;20084;-65
2023/11/01 08:40:32;;;;;;;5.88;2.35;;;;;;;;;;10281502;28;20061;-66
2023/11/01 08:45:32;;;;;;;4.38;2.42;;;;;;;;;;10285146;28;20076;-65
2023/11/01 08:50:31;;;;;;;3.22;2.30;;;;;;;;;;10284687;28;20069;-65
2023/11/01 08:55:29;;;;;;;5.90;2.17;;;;;;;;;;10283975;28;20064;-65
2023/11/01 09:00:27;;;;;;;6.75;2.28;;;;;;;;;;10283631;28;20065;-65
2023/11/01 09:05:44;;;;;;;4.18;1.90;;;;;;;;;;10287516;28;20068;-65
2023/11/01 09:10:42;;;;;;;6.50;2.53;;;;;;;;;;10287554;28;20064;-64
2023/11/01 09:15:40;;;;;;;5.53;2.58;;;;;;;;;;10288265;28;20096;-65
2023/11/01 09:20:38;;;;;;;3.70;2.25;;;;;;;;;;10288980;28;20072;-64
2023/11/01 09:25:38;;;;;;;4.97;2.28;;;;;;;;;;10289067;28;20061;-64
2023/11/01 09:30:36;;;;;;;3.40;1.75;;;;;;;;;;10285264;28;20116;-64
2023/11/01 09:35:34;;;;;;;7.53;2.03;;;;;;;;;;10288638;28;20517;-64
2023/11/01 09:40:33;;;;;;;2.80;1.65;;;;;;;;;;10290569;28;20071;-64
2023/11/01 09:45:33;;;;;;;2.42;1.88;;;;;;;;;;10295228;28;20537;-65
2023/11/01 09:50:35;;;;;;;3.55;2.50;;;;;;;;;;10295403;28;20087;-65
2023/11/01 09:55:33;;;;;;;10.30;2.08;;;;;;;;;;10294789;28;20091;-65
2023/11/01 10:00:33;;;;;;;5.93;1.90;;;;;;;;;;10296666;28;20079;-65
2023/11/01 10:05:31;;;;;;;4.22;1.90;;;;;;;;;;10294735;28;20084;-65
2023/11/01 10:10:31;;;;;;;6.55;2.10;;;;;;;;;;10293465;28;20547;-65
2023/11/01 10:15:29;;;;;;;4.18;2.35;;;;;;;;;;10293342;28;20514;-65
2023/11/01 10:20:29;;;;;;;5.05;2.28;;;;;;;;;;10293956;28;20091;-65
2023/11/01 10:25:27;;;;;;;6.82;2.63;;;;;;;;;;10294434;28;20072;-65
2023/11/01 10:30:25;;;;;;;4.07;2.20;;;;;;;;;;10293132;28;20084;-65
2023/11/01 10:35:24;;;;;;;6.07;2.42;;;;;;;;;;10293487;28;20072;-65
2023/11/01 10:40:24;;;;;;;8.40;2.40;;;;;;;;;;10293969;28;20080;-65
2023/11/01 10:45:22;;;;;;;2.83;1.80;;;;;;;;;;10292935;28;20491;-65
2023/11/01 10:50:22;;;;;;;4.82;2.53;;;;;;;;;;10292144;28;20072;-65
2023/11/01 10:55:21;;;;;;;4.60;2.03;;;;;;;;;;10293580;28;20083;-66
2023/11/01 11:00:24;;;;;;;4.28;2.25;;;;;;;;;;10290847;28;20068;-64
2023/11/01 11:05:26;;;;;;;8.77;2.55;;;;;;;;;;10293604;28;20096;-64
2023/11/01 11:10:25;;;;;;;4.32;2.50;;;;;;;;;;10292918;28;20107;-64
2023/11/01 11:15:38;;;;;;;4.45;1.63;;;;;;;;;;10288029;28;20076;-64
2023/11/01 11:20:39;;;;;;;8.02;2.80;;;;;;;;;;10291577;28;20152;-65
2023/11/01 11:25:44;;;;;;;8.27;2.20;;;;;;;;;;10290006;28;20075;-65
2023/11/01 11:31:07;;;;;;;3.78;1.95;;;;;;;;;;10291090;28;20079;-64
2023/11/01 11:36:11;;;;;;;5.70;1.65;;;;;;;;;;10291025;28;20092;-65
2023/11/01 11:41:15;;;;;;;5.40;1.73;;;;;;;;;;10291086;28;20076;-65
2023/11/01 11:46:30;;;;;;;7.15;1.65;;;;;;;;;;10289235;28;20764;-65
2023/11/01 11:51:33;;;;;;;4.93;1.88;;;;;;;;;;10290093;28;20073;-65
2023/11/01 11:56:31;;;;;;;3.58;1.33;;;;;;;;;;10288485;28;20060;-64
2023/11/01 12:01:30;;;;;;;2.17;1.55;;;;;;;;;;10288903;28;20075;-64
2023/11/01 12:06:40;;;;;;;3.10;1.73;;;;;;;;;;10290549;28;20064;-65
2023/11/01 12:11:40;;;;;;;8.15;1.58;;;;;;;;;;10289021;28;20494;-65
2023/11/01 12:16:38;;;;;;;5.18;1.58;;;;;;;;;;10289350;28;20088;-65
2023/11/01 12:21:41;;;;;;;2.15;1.50;;;;;;;;;;10284755;28;20154;-65
2023/11/01 12:26:59;;;;;;;2.92;1.83;;;;;;;;;;10284864;28;20548;-65
2023/11/01 12:32:01;;;;;;;2.20;1.33;;;;;;;;;;10284985;28;20076;-65
2023/11/01 12:37:02;;;;;;;4.00;1.60;;;;;;;;;;10289867;28;20083;-64
2023/11/01 12:42:15;;;;;;;3.13;1.55;;;;;;;;;;10286068;28;20067;-64
2023/11/01 12:47:13;;;;;;;5.70;1.60;;;;;;;;;;10288420;28;20520;-65
2023/11/01 12:52:13;;;;;;;8.55;1.48;;;;;;;;;;10295209;28;20424;-65
2023/11/01 12:57:11;;;;;;;2.33;1.83;;;;;;;;;;10289000;28;20076;-65
2023/11/01 13:02:10;;;;;;;1.00;0.98;;;;;;;;;;10288513;28;20091;-64
2023/11/01 13:07:09;;;;;;;3.92;1.10;;;;;;;;;;10290022;28;20056;-65
2023/11/01 13:12:09;;;;;;;1.77;1.35;;;;;;;;;;10285453;28;20060;-64
2023/11/01 13:17:08;;;;;;;3.42;1.20;;;;;;;;;;10292052;28;20087;-65
2023/11/01 13:22:06;;;;;;;4.13;1.50;;;;;;;;;;10296339;28;20076;-65
2023/11/01 13:27:08;;;;;;;1.02;0.93;;;;;;;;;;10296290;28;20285;-65
2023/11/01 13:32:08;;;;;;;13.20;1.65;;;;;;;;;;10295505;28;20084;-65
2023/11/01 13:37:07;;;;;;;8.15;1.80;;;;;;;;;;10294642;28;20087;-64
2023/11/01 13:42:05;;;;;;;2.15;1.20;;;;;;;;;;10295995;28;20075;-64
2023/11/01 13:47:04;;;;;;;3.53;1.20;;;;;;;;;;10293163;28;20069;-65
2023/11/01 13:52:03;;;;;;;2.33;1.35;;;;;;;;;;10294729;28;20069;-65
2023/11/01 13:57:02;;;;;;;10.25;1.38;;;;;;;;;;10296082;28;20072;-65
2023/11/01 14:02:01;;;;;;;3.33;1.55;;;;;;;;;;10294244;28;20064;-65
2023/11/01 14:07:01;;;;;;;3.97;2.05;;;;;;;;;;10293642;28;20068;-66
2023/11/01 14:12:02;;;;;;;5.22;1.30;;;;;;;;;;10293775;28;20065;-65
2023/11/01 14:17:01;;;;;;;4.50;1.48;;;;;;;;;;10294126;28;20076;-65
2023/11/01 14:21:59;;;;;;;1.88;1.08;;;;;;;;;;10295360;28;20077;-65
2023/11/01 14:26:59;;;;;;;1.52;1.13;;;;;;;;;;10293231;28;20099;-65
2023/11/01 14:31:59;;;;;;;2.88;1.20;;;;;;;;;;10293760;28;20076;-65
2023/11/01 14:36:57;;;;;;;4.07;1.45;;;;;;;;;;10295669;28;20134;-65
2023/11/01 14:41:55;;;;;;;4.45;1.58;;;;;;;;;;10292684;28;20099;-65
2023/11/01 14:46:54;;;;;;;2.40;1.58;;;;;;;;;;10293773;28;20064;-65
2023/11/01 14:51:53;;;;;;;6.05;1.67;;;;;;;;;;10291963;28;20072;-65
2023/11/01 14:56:52;;;;;;;2.95;2.35;;;;;;;;;;10292980;28;20080;-65
2023/11/01 15:01:50;;;;;;;2.25;1.40;;;;;;;;;;10291404;28;20450;-65
2023/11/01 15:06:51;;;;;;;1.92;1.10;;;;;;;;;;10291705;28;20076;-65
2023/11/01 15:11:50;;;;;;;4.03;1.75;;;;;;;;;;10293667;28;20068;-64
2023/11/01 15:16:49;;;;;;;5.35;1.88;;;;;;;;;;10294844;28;20076;-64
2023/11/01 15:21:48;;;;;;;6.85;2.60;;;;;;;;;;10292943;28;20069;-64
2023/11/01 15:26:46;;;;;;;6.50;1.92;;;;;;;;;;10292012;28;20088;-64
2023/11/01 15:31:46;;;;;;;4.20;1.67;;;;;;;;;;10288650;28;20068;-65
2023/11/01 15:36:45;;;;;;;2.03;1.80;;;;;;;;;;10287896;28;20088;-66
2023/11/01 15:41:43;;;;;;;4.00;3.40;;;;;;;;;;10291911;28;20065;-65
2023/11/01 15:46:41;;;;;;;7.35;4.40;;;;;;;;;;10291523;28;20079;-65
2023/11/01 15:51:44;;;;;;;4.85;2.42;;;;;;;;;;10287221;28;20471;-66
2023/11/01 15:56:42;;;;;;;7.93;3.00;;;;;;;;;;10288403;28;20080;-65
2023/11/01 16:01:41;;;;;;;5.78;2.55;;;;;;;;;;10290501;28;20080;-65
2023/11/01 16:06:39;;;;;;;6.38;2.75;;;;;;;;;;10289948;28;20076;-67
2023/11/01 16:11:39;;;;;;;4.47;2.88;;;;;;;;;;10290995;28;20146;-67
2023/11/01 16:16:37;;;;;;;9.93;4.95;;;;;;;;;;10289968;28;20083;-67
2023/11/01 16:21:36;;;;;;;5.80;4.72;;;;;;;;;;10289509;28;20076;-65
2023/11/01 16:26:34;;;;;;;5.20;4.43;;;;;;;;;;10290047;28;20492;-66
2023/11/01 16:31:34;;;;;;;5.85;3.10;;;;;;;;;;10291400;28;20076;-66
2023/11/01 16:36:33;;;;;;;7.57;4.30;;;;;;;;;;10288968;28;20497;-66
2023/11/01 16:41:31;;;;;;;4.50;3.65;;;;;;;;;;10283516;28;20509;-66
2023/11/01 16:46:29;;;;;;;6.20;4.32;;;;;;;;;;10290597;28;20420;-66
2023/11/01 16:51:29;;;;;;;3.20;2.78;;;;;;;;;;10298103;28;20040;-66
2023/11/01 16:56:27;;;;;;;5.07;3.42;;;;;;;;;;10297396;28;20083;-65
2023/11/01 17:01:27;;;;;;;7.07;3.42;;;;;;;;;;10298901;28;20080;-66
2023/11/01 17:06:26;;;;;;;17.48;7.28;;;;;;;;;;10297848;28;20072;-66
2023/11/01 17:11:25;;;;;;;4.75;3.25;;;;;;;;;;10296648;28;20076;-67
2023/11/01 17:16:24;;;;;;;4.15;2.88;;;;;;;;;;10296869;28;20068;-66
2023/11/01 17:21:22;;;;;;;4.95;2.80;;;;;;;;;;10298482;28;20083;-66
2023/11/01 17:26:26;;;;;;;2.75;2.55;;;;;;;;;;10294066;28;20072;-66
2023/11/01 17:31:41;;;;;;;3.70;2.70;;;;;;;;;;10296598;28;20087;-66
2023/11/01 17:36:39;;;;;;;3.10;2.50;;;;;;;;;;10295637;28;20514;-66
2023/11/01 17:42:03;;;;;;;4.07;2.50;;;;;;;;;;10292651;28;20525;-66
2023/11/01 17:47:04;;;;;;;3.45;2.72;;;;;;;;;;10295168;28;20064;-66
2023/11/01 17:52:04;;;;;;;3.20;2.33;;;;;;;;;;10296295;28;20084;-66
2023/11/01 17:57:05;;;;;;;5.10;2.17;;;;;;;;;;10296301;28;20088;-66
2023/11/01 18:02:04;;;;;;;4.13;2.25;;;;;;;;;;10295739;28;20072;-66
2023/11/01 18:07:02;;;;;;;5.30;2.47;;;;;;;;;;10290456;28;20069;-66
2023/11/01 18:12:01;;;;;;;3.40;1.83;;;;;;;;;;10295729;28;20084;-65
2023/11/01 18:17:01;;;;;;;4.13;1.95;;;;;;;;;;10292803;28;20072;-66
2023/11/01 18:21:59;;;;;;;2.60;1.85;;;;;;;;;;10294357;28;20077;-67
2023/11/01 18:26:58;;;;;;;5.47;3.00;;;;;;;;;;10294305;28;20064;-66
2023/11/01 18:31:56;;;;;;;6.72;2.38;;;;;;;;;;10289450;28;20079;-66
2023/11/01 18:36:58;;;;;;;2.92;2.03;;;;;;;;;;10293732;28;20099;-66
2023/11/01 18:41:57;;;;;;;5.97;2.25;;;;;;;;;;10293824;28;20083;-66
2023/11/01 18:46:56;;;;;;;3.13;2.35;;;;;;;;;;10293751;28;20068;-66
2023/11/01 18:51:57;;;;;;;2.22;2.03;;;;;;;;;;10293904;28;20453;-66
2023/11/01 18:56:56;;;;;;;3.92;1.90;;;;;;;;;;10290928;28;20072;-66
2023/11/01 19:01:54;;;;;;;2.90;2.10;;;;;;;;;;10293361;28;20068;-65
2023/11/01 19:06:52;;;;;;;2.55;1.88;;;;;;;;;;10292417;28;20100;-65
2023/11/01 19:11:52;;;;;;;2.47;2.20;;;;;;;;;;10292917;28;20455;-65
2023/11/01 19:16:51;;;;;;;2.25;1.90;;;;;;;;;;10293073;28;20079;-65
2023/11/01 19:21:49;;;;;;;2.30;2.10;;;;;;;;;;10293366;28;20084;-65
2023/11/01 19:26:47;;;;;;;2.00;1.83;;;;;;;;;;10286238;28;20075;-66
2023/11/01 19:31:48;;;;;;;2.80;1.85;;;;;;;;;;10290727;28;20081;-65
2023/11/01 19:36:47;;;;;;;2.13;1.95;;;;;;;;;;10293517;28;20081;-66
2023/11/01 19:41:45;;;;;;;3.30;2.22;;;;;;;;;;10290122;28;20478;-66
2023/11/01 19:46:44;;;;;;;2.50;2.30;;;;;;;;;;10288780;28;20068;-66
2023/11/01 19:51:43;;;;;;;2.72;1.95;;;;;;;;;;10290095;28;20067;-67
2023/11/01 19:56:42;;;;;;;4.60;2.50;;;;;;;;;;10286081;28;20074;-66
2023/11/01 20:01:40;;;;;;;5.22;2.83;;;;;;;;;;10290298;28;20063;-65
2023/11/01 20:06:39;;;;;;;3.28;2.75;;;;;;;;;;10289350;28;20067;-66
2023/11/01 20:11:38;;;;;;;3.58;3.13;;;;;;;;;;10292539;28;20490;-66
2023/11/01 20:16:37;;;;;;;3.65;2.90;;;;;;;;;;10292206;28;20095;-67
2023/11/01 20:21:35;;;;;;;4.32;2.90;;;;;;;;;;10286407;28;20087;-65
2023/11/01 20:26:33;;;;;;;6.28;3.35;;;;;;;;;;10285238;28;20505;-66
2023/11/01 20:31:33;;;;;;;5.35;3.38;;;;;;;;;;10286058;28;20166;-66
2023/11/01 20:36:31;;;;;;;4.03;3.10;;;;;;;;;;10282541;28;20072;-66
2023/11/01 20:41:29;;;;;;;4.82;3.00;;;;;;;;;;10278891;28;20068;-65
2023/11/01 20:46:27;;;;;;;3.42;2.97;;;;;;;;;;10274636;28;20096;-65
2023/11/01 20:51:27;;;;;;;3.45;2.90;;;;;;;;;;10284579;28;20067;-66
2023/11/01 20:56:25;;;;;;;5.30;3.10;;;;;;;;;;10284123;28;20089;-67
2023/11/01 21:01:23;;;;;;;3.15;2.70;;;;;;;;;;10281443;28;20064;-66
2023/11/01 21:06:22;;;;;;;3.60;3.20;;;;;;;;;;10289240;28;20068;-66
2023/11/01 21:11:21;;;;;;;4.75;2.72;;;;;;;;;;10287970;28;20056;-66
2023/11/01 21:16:20;;;;;;;3.25;2.55;;;;;;;;;;10286744;28;20076;-66
2023/11/01 21:21:18;;;;;;;3.47;2.40;;;;;;;;;;10288837;28;20099;-66
2023/11/01 21:26:16;;;;;;;2.70;2.30;;;;;;;;;;10288894;28;20528;-65
2023/11/01 21:31:16;;;;;;;2.45;2.20;;;;;;;;;;10289684;28;20079;-65
2023/11/01 21:36:14;;;;;;;2.97;2.35;;;;;;;;;;10294844;28;20104;-66
2023/11/01 21:41:13;;;;;;;2.45;2.03;;;;;;;;;;10295855;28;20079;-66
2023/11/01 21:46:13;;;;;;;4.30;2.15;;;;;;;;;;10296622;28;20072;-66
2023/11/01 21:51:13;;;;;;;2.10;1.90;;;;;;;;;;10294069;28;20065;-66
2023/11/01 21:56:11;;;;;;;2.30;2.10;;;;;;;;;;10295119;28;20041;-65
2023/11/01 22:01:20;;;;;;;4.03;2.10;;;;;;;;;;10294561;28;20102;-65
2023/11/01 22:06:24;;;;;;;2.45;1.73;;;;;;;;;;10294346;28;20076;-66
2023/11/01 22:11:22;;;;;;;1.93;1.83;;;;;;;;;;10293712;28;20065;-65
2023/11/01 22:16:30;;;;;;;4.70;2.10;;;;;;;;;;10294525;28;20071;-66
2023/11/01 22:21:36;;;;;;;2.20;1.27;;;;;;;;;;10294472;28;20084;-66
2023/11/01 22:26:34;;;;;;;1.88;1.77;;;;;;;;;;10295866;28;20076;-65
2023/11/01 22:31:47;;;;;;;1.70;1.60;;;;;;;;;;10294790;28;20469;-65
2023/11/01 22:36:48;;;;;;;2.20;1.90;;;;;;;;;;10294580;28;20071;-65
2023/11/01 22:41:46;;;;;;;2.85;1.60;;;;;;;;;;10293232;28;20596;-65
2023/11/01 22:46:44;;;;;;;3.25;1.48;;;;;;;;;;10293103;28;20065;-66
2023/11/01 22:51:42;;;;;;;2.92;1.80;;;;;;;;;;10295242;28;20138;-66
2023/11/01 22:56:42;;;;;;;2.72;2.10;;;;;;;;;;10290414;28;20083;-66
2023/11/01 23:01:40;;;;;;;2.30;1.65;;;;;;;;;;10290313;28;20128;-65
2023/11/01 23:06:41;;;;;;;6.85;1.88;;;;;;;;;;10288576;28;20068;-66
2023/11/01 23:11:39;;;;;;;4.35;2.00;;;;;;;;;;10293840;28;20072;-66
2023/11/01 23:16:40;;;;;;;1.33;1.23;;;;;;;;;;10291711;28;20068;-66
2023/11/01 23:21:38;;;;;;;2.10;1.98;;;;;;;;;;10287494;28;20470;-66
2023/11/01 23:26:51;;;;;;;2.20;2.00;;;;;;;;;;10292364;28;20071;-66
2023/11/01 23:31:52;;;;;;;3.40;2.03;;;;;;;;;;10289645;28;20069;-66
2023/11/01 23:36:51;;;;;;;3.97;1.95;;;;;;;;;;10288915;28;20072;-65
2023/11/01 23:41:50;;;;;;;6.22;2.72;;;;;;;;;;10291986;28;20069;-65
2023/11/01 23:46:48;;;;;;;3.75;2.55;;;;;;;;;;10290878;28;20080;-65
2023/11/01 23:51:58;;;;;;;2.50;2.30;;;;;;;;;;10291155;28;20065;-65
2023/11/01 23:56:56;;;;;;;8.45;2.60;;;;;;;;;;10289040;28;20083;-66
